Time;durP1;ratioP1;P1;durP2;ratioP2;P2;SDS_P1;SDS_P2;PMS_P1;PMS_P2;Temp;Humidity;BMP_temperature;BMP_pressure;BME280_temperature;BME280_humidity;BME280_pressure;Samples;Min_cycle;Max_cycle;Signal;HPM_P1;HPM_P2
2021/09/12 00:01:13;;;;;;;;;0.67;0.00;;;;;27.35;40.26;101146.97;5035562;28;45445;-66
2021/09/12 00:03:38;;;;;;;;;0.00;0.00;;;;;27.39;40.88;101153.16;5053671;28;46210;-66
2021/09/12 00:06:04;;;;;;;;;0.00;0.00;;;;;27.38;40.73;101155.00;5053297;28;45392;-66
2021/09/12 00:08:30;;;;;;;;;0.00;0.00;;;;;27.39;40.61;101161.34;5053428;28;45532;-66
2021/09/12 00:10:55;;;;;;;;;0.00;0.00;;;;;27.37;40.76;101152.34;5035155;28;45505;-66
2021/09/12 00:13:20;;;;;;;;;0.00;0.00;;;;;27.38;40.44;101160.47;5053478;28;45765;-66
2021/09/12 00:15:47;;;;;;;;;0.00;0.00;;;;;27.38;40.23;101159.59;5053058;28;45425;-66
2021/09/12 00:18:12;;;;;;;;;0.00;0.00;;;;;27.37;40.37;101152.34;5053394;28;45424;-66
2021/09/12 00:20:38;;;;;;;;;0.00;0.00;;;;;27.34;40.45;101148.81;5053157;28;45422;-66
2021/09/12 00:23:03;;;;;;;;;0.00;0.00;;;;;27.38;40.70;101154.13;5053026;28;45692;-66
2021/09/12 00:25:29;;;;;;;;;0.00;0.00;;;;;27.36;41.08;101156.06;5052452;28;45375;-66
2021/09/12 00:27:55;;;;;;;;;0.00;0.00;;;;;27.37;40.21;101155.06;5052933;28;45446;-66
2021/09/12 00:30:21;;;;;;;;;0.00;0.00;;;;;27.34;40.46;101150.66;5053070;28;45948;-66
2021/09/12 00:32:46;;;;;;;;;0.00;0.00;;;;;27.38;40.53;101156.84;5034529;28;46647;-65
2021/09/12 00:35:13;;;;;;;;;0.00;0.00;;;;;27.38;40.23;101154.13;5052770;28;45499;-66
2021/09/12 00:37:38;;;;;;;;;0.00;0.00;;;;;27.38;40.99;101151.41;5052854;28;45443;-66
2021/09/12 00:40:07;;;;;;;;;0.00;0.00;;;;;27.37;40.19;101152.34;5034459;28;45712;-67
2021/09/12 00:42:33;;;;;;;;;0.00;0.00;;;;;27.37;40.25;101155.06;5052892;28;46348;-66
2021/09/12 00:44:58;;;;;;;;;0.00;0.00;;;;;27.36;41.02;101148.72;5052911;28;45458;-66
2021/09/12 00:47:24;;;;;;;;;0.00;0.00;;;;;27.37;40.83;101149.59;5052436;28;45385;-66
2021/09/12 00:49:49;;;;;;;;;0.00;0.00;;;;;27.33;40.96;101140.72;5053164;28;45567;-66
2021/09/12 00:52:15;;;;;;;;;0.00;0.00;;;;;27.37;40.79;101153.25;5052970;28;45432;-66
2021/09/12 00:54:44;;;;;;;;;0.00;0.00;;;;;27.36;40.42;101146.00;5052867;28;45569;-66
2021/09/12 00:57:11;;;;;;;;;0.00;0.00;;;;;27.37;40.33;101146.88;5053020;28;45539;-66
2021/09/12 00:59:38;;;;;;;;;0.00;0.00;;;;;27.37;40.86;101138.69;5053119;28;45768;-66
2021/09/12 01:02:05;;;;;;;;;0.00;0.00;;;;;27.37;40.82;101141.41;5054366;28;46033;-66
2021/09/12 01:04:32;;;;;;;;;0.00;0.00;;;;;27.36;40.86;101140.53;5052490;28;45400;-66
2021/09/12 01:07:00;;;;;;;;;0.00;0.00;;;;;27.33;40.79;101147.03;5052243;28;45538;-66
2021/09/12 01:09:25;;;;;;;;;0.00;0.00;;;;;27.36;40.54;101145.13;5052324;28;45480;-66
2021/09/12 01:11:56;;;;;;;;;0.00;0.00;;;;;27.36;40.38;101142.41;5052102;28;46524;-66
2021/09/12 01:14:25;;;;;;;;;0.00;0.00;;;;;27.32;40.21;101139.81;5052044;28;45552;-67
2021/09/12 01:16:51;;;;;;;;;0.00;0.00;;;;;27.31;40.64;101131.72;5052397;28;45492;-66
2021/09/12 01:19:17;;;;;;;;;0.00;0.00;;;;;27.31;40.76;101131.72;5052592;28;45620;-66
2021/09/12 01:21:42;;;;;;;;;0.00;0.00;;;;;27.33;40.83;101129.78;5017158;28;46036;-66
2021/09/12 01:24:08;;;;;;;;;0.00;0.00;;;;;27.33;40.38;101132.50;5052305;28;45495;-66
2021/09/12 01:26:34;;;;;;;;;0.00;0.00;;;;;27.27;40.93;101114.59;5032672;28;45395;-66
2021/09/12 01:29:00;;;;;;;;;0.00;0.00;;;;;27.31;40.64;101124.38;5052137;28;45433;-66
2021/09/12 01:31:28;;;;;;;;;0.00;0.00;;;;;27.31;40.84;101127.13;5051689;28;46215;-65
2021/09/12 01:33:54;;;;;;;;;0.00;0.00;;;;;27.31;40.88;101128.97;5051684;28;45409;-65
2021/09/12 01:36:19;;;;;;;;;0.00;0.00;;;;;27.30;40.72;101129.91;5051784;28;45548;-66
2021/09/12 01:38:46;;;;;;;;;0.00;0.00;;;;;27.31;40.37;101127.13;5051907;28;45380;-66
2021/09/12 01:41:13;;;;;;;;;0.00;0.00;;;;;27.29;40.98;101120.84;5051590;28;46239;-66
2021/09/12 01:43:49;;;;;;;;;0.00;0.00;;;;;27.29;40.55;101123.59;5051728;28;45550;-66
2021/09/12 01:46:15;;;;;;;;;0.00;0.00;;;;;27.30;40.63;101122.59;5051710;28;45444;-66
2021/09/12 01:48:41;;;;;;;;;0.00;0.00;;;;;27.30;41.11;101129.91;5051782;28;45828;-66
2021/09/12 01:51:06;;;;;;;;;0.00;0.00;;;;;27.30;40.31;101119.00;5051257;28;46219;-66
2021/09/12 01:53:32;;;;;;;;;0.00;0.00;;;;;27.27;41.14;101113.72;5051765;28;45849;-66
2021/09/12 01:55:58;;;;;;;;;0.00;0.00;;;;;27.29;40.84;101123.59;5054139;28;45608;-66
2021/09/12 01:58:25;;;;;;;;;0.00;0.00;;;;;27.28;41.01;101121.78;5051537;28;45436;-66
2021/09/12 02:00:50;;;;;;;;;0.00;0.00;;;;;27.28;40.85;101121.78;5051436;28;45527;-65
2021/09/12 02:03:17;;;;;;;;;0.00;0.00;;;;;27.30;40.61;101124.47;5033123;28;45896;-66
2021/09/12 02:05:42;;;;;;;;;0.00;0.00;;;;;27.27;40.33;101120.03;5051161;28;45422;-66
2021/09/12 02:08:07;;;;;;;;;0.00;0.00;;;;;27.28;41.13;101120.91;5051374;28;45450;-66
2021/09/12 02:10:33;;;;;;;;;0.00;0.00;;;;;27.28;41.10;101124.53;5051486;28;46115;-66
2021/09/12 02:12:59;;;;;;;;;0.00;0.00;;;;;27.29;40.99;101129.03;5050990;28;45426;-66
2021/09/12 02:15:25;;;;;;;;;0.00;0.00;;;;;27.22;41.18;101113.88;5051189;28;45395;-66
2021/09/12 02:17:51;;;;;;;;;0.00;0.00;;;;;27.26;40.52;101123.72;5051435;28;45451;-66
2021/09/12 02:20:16;;;;;;;;;0.00;0.00;;;;;27.27;40.46;101130.97;5050907;28;46479;-66
2021/09/12 02:22:42;;;;;;;;;0.00;0.00;;;;;27.27;40.41;101130.09;5051062;28;45480;-66
2021/09/12 02:25:08;;;;;;;;;0.00;0.00;;;;;27.26;40.79;101137.38;5050692;28;45848;-66
2021/09/12 02:27:34;;;;;;;;;0.00;0.00;;;;;27.26;40.71;101134.66;5051343;28;45475;-66
2021/09/12 02:30:00;;;;;;;;;0.00;0.00;;;;;27.24;40.63;101133.84;5050708;28;45547;-66
2021/09/12 02:32:25;;;;;;;;;0.00;0.00;;;;;27.24;41.06;101142.03;5051323;28;45484;-66
2021/09/12 02:34:50;;;;;;;;;0.00;0.00;;;;;27.22;41.17;101138.44;5051658;28;45807;-66
2021/09/12 02:37:16;;;;;;;;;0.00;0.00;;;;;27.26;40.59;101142.84;5051620;28;45371;-66
2021/09/12 02:39:43;;;;;;;;;0.00;0.00;;;;;27.25;40.77;101142.94;5054769;28;45478;-66
2021/09/12 02:42:08;;;;;;;;;0.00;0.00;;;;;27.24;40.80;101139.28;5036378;28;45434;-66
2021/09/12 02:44:33;;;;;;;;;0.00;0.00;;;;;27.24;41.12;101144.75;5054759;28;45495;-66
2021/09/12 02:46:59;;;;;;;;;0.00;0.00;;;;;27.24;40.82;101138.41;5054541;28;45489;-66
2021/09/12 02:49:24;;;;;;;;;0.00;0.00;;;;;27.24;40.46;101131.09;5054104;28;45398;-66
2021/09/12 02:51:50;;;;;;;;;0.00;0.00;;;;;27.23;40.51;101134.81;5054611;28;45491;-66
2021/09/12 02:54:15;;;;;;;;;0.00;0.00;;;;;27.22;41.09;101133.00;5054838;28;45505;-66
2021/09/12 02:56:40;;;;;;;;;0.00;0.00;;;;;27.22;41.07;101132.13;5036634;28;45435;-66
2021/09/12 02:59:06;;;;;;;;;0.00;0.00;;;;;27.22;41.20;101138.44;5054298;28;46223;-65
2021/09/12 03:01:31;;;;;;;;;0.00;0.00;;;;;27.20;40.82;101129.44;5054295;28;45933;-67
2021/09/12 03:03:56;;;;;;;;;0.00;0.00;;;;;27.22;40.71;101133.00;5054464;28;45485;-65
2021/09/12 03:06:22;;;;;;;;;0.00;0.00;;;;;27.20;41.15;101134.91;5054547;28;45517;-65
2021/09/12 03:08:47;;;;;;;;;0.00;0.00;;;;;27.17;40.74;101124.16;5054043;28;46712;-66
2021/09/12 03:11:12;;;;;;;;;0.00;0.00;;;;;27.19;41.05;101127.69;5054349;28;45503;-66
2021/09/12 03:13:38;;;;;;;;;0.00;0.00;;;;;27.17;40.49;101117.78;5054358;28;45515;-66
2021/09/12 03:16:04;;;;;;;;;0.00;0.00;;;;;27.19;41.20;101127.69;5054286;28;45447;-66
2021/09/12 03:18:30;;;;;;;;;0.00;0.00;;;;;27.17;40.96;101126.88;5054115;28;46718;-65
2021/09/12 03:20:55;;;;;;;;;0.00;0.00;;;;;27.18;40.68;101134.09;5035496;28;45464;-66
2021/09/12 03:23:20;;;;;;;;;0.00;0.00;;;;;27.18;40.71;101123.19;5054415;28;45828;-66
2021/09/12 03:25:46;;;;;;;;;0.00;0.00;;;;;27.17;41.20;101126.88;5053578;28;45454;-66
2021/09/12 03:28:12;;;;;;;;;0.00;0.00;;;;;27.15;40.73;101120.63;5053850;28;45823;-66
2021/09/12 03:30:38;;;;;;;;;0.00;0.00;;;;;27.16;40.73;101122.38;5053952;28;45475;-66
2021/09/12 03:33:03;;;;;;;;;0.00;0.00;;;;;27.13;41.07;101115.22;5053770;28;45434;-66
2021/09/12 03:35:29;;;;;;;;;0.00;0.00;;;;;27.14;40.65;101118.84;5053843;28;45489;-66
2021/09/12 03:37:54;;;;;;;;;0.00;0.00;;;;;27.12;40.58;101118.03;5053653;28;45413;-65
2021/09/12 03:40:21;;;;;;;;;0.00;0.00;;;;;27.16;40.79;101129.69;5053791;28;45658;-65
2021/09/12 03:42:46;;;;;;;;;0.00;0.00;;;;;27.15;40.80;101126.09;5035846;28;45561;-65
2021/09/12 03:45:12;;;;;;;;;0.00;0.00;;;;;27.07;40.90;101104.59;5053985;28;45478;-65
2021/09/12 03:47:38;;;;;;;;;0.00;0.00;;;;;27.13;40.62;101117.97;5053409;28;45460;-65
2021/09/12 03:50:04;;;;;;;;;0.00;0.00;;;;;27.13;41.19;101114.34;5053024;28;45498;-65
2021/09/12 03:52:31;;;;;;;;;0.00;0.00;;;;;27.14;41.29;101116.09;5053727;28;45467;-67
2021/09/12 03:54:56;;;;;;;;;0.00;0.00;;;;;27.13;40.79;101111.63;5056479;28;45528;-66
2021/09/12 03:57:23;;;;;;;;;0.00;0.00;;;;;27.13;41.23;101117.09;5053384;28;45456;-65
2021/09/12 03:59:52;;;;;;;;;0.00;0.00;;;;;27.12;41.27;101115.28;5034793;28;45390;-65
2021/09/12 04:02:18;;;;;;;;;0.00;0.00;;;;;27.10;40.95;101106.28;5053624;28;45487;-65
2021/09/12 04:04:44;;;;;;;;;0.00;0.00;;;;;27.13;41.34;101112.50;5035114;28;45672;-66
2021/09/12 04:07:09;;;;;;;;;0.00;0.00;;;;;27.13;40.74;101108.88;5035043;28;47229;-65
2021/09/12 04:09:34;;;;;;;;;0.00;0.00;;;;;27.13;41.02;101106.16;5053210;28;45468;-65
2021/09/12 04:12:00;;;;;;;;;0.00;0.00;;;;;27.13;41.02;101112.50;5053412;28;45478;-65
2021/09/12 04:14:25;;;;;;;;;0.00;0.00;;;;;27.11;41.25;101099.88;5053427;28;45493;-65
2021/09/12 04:16:50;;;;;;;;;0.00;0.00;;;;;27.11;40.61;101103.50;5035026;28;47329;-65
2021/09/12 04:19:16;;;;;;;;;0.00;0.00;;;;;27.11;41.16;101103.50;5053491;28;45557;-66
2021/09/12 04:21:41;;;;;;;;;0.00;0.00;;;;;27.11;41.20;101098.03;5053450;28;45862;-65
2021/09/12 04:24:07;;;;;;;;;0.00;0.00;;;;;27.11;41.37;101102.63;5053624;28;45434;-66
2021/09/12 04:26:32;;;;;;;;;0.00;0.00;;;;;27.11;41.46;101097.16;5033996;28;45768;-66
2021/09/12 04:28:57;;;;;;;;;0.00;0.00;;;;;27.12;40.92;101097.06;5052929;28;45401;-66
2021/09/12 04:31:23;;;;;;;;;0.00;0.00;;;;;27.12;41.21;101098.91;5034774;28;45453;-66
2021/09/12 04:33:48;;;;;;;;;0.00;0.00;;;;;27.12;41.37;101096.19;5053131;28;45417;-66
2021/09/12 04:36:13;;;;;;;;;0.00;0.00;;;;;27.11;41.40;101102.63;5052832;28;45468;-66
2021/09/12 04:38:39;;;;;;;;;0.00;0.00;;;;;27.09;41.15;101099.97;5034124;28;46171;-66
2021/09/12 04:41:04;;;;;;;;;0.00;0.00;;;;;27.12;40.78;101109.84;5052816;28;45743;-66
2021/09/12 04:43:30;;;;;;;;;0.00;0.00;;;;;27.11;41.45;101105.34;5053025;28;45421;-66
2021/09/12 04:45:55;;;;;;;;;0.00;0.00;;;;;27.11;41.08;101105.34;5052855;28;45458;-66
2021/09/12 04:48:22;;;;;;;;;0.00;0.00;;;;;27.09;40.87;101110.88;5052738;28;45770;-65
2021/09/12 04:50:47;;;;;;;;;0.00;0.00;;;;;27.09;40.84;101101.81;5034437;28;45723;-65
2021/09/12 04:53:13;;;;;;;;;0.00;0.00;;;;;27.09;41.39;101105.41;5052592;28;45559;-65
2021/09/12 04:55:38;;;;;;;;;0.00;0.00;;;;;27.10;40.90;101106.28;5051866;28;45528;-66
2021/09/12 04:58:03;;;;;;;;;0.00;0.00;;;;;27.09;40.81;101104.53;5052666;28;45522;-66
2021/09/12 05:00:29;;;;;;;;;0.00;0.00;;;;;27.08;41.33;101103.63;5052539;28;45461;-66
2021/09/12 05:02:54;;;;;;;;;0.00;0.00;;;;;27.07;41.19;101110.06;5051121;28;45527;-65
2021/09/12 05:05:19;;;;;;;;;0.00;0.00;;;;;27.07;40.88;101111.94;5034234;28;47224;-65
2021/09/12 05:07:45;;;;;;;;;0.00;0.00;;;;;27.05;41.25;101109.25;5052390;28;45437;-65
2021/09/12 05:10:11;;;;;;;;;0.00;0.00;;;;;27.06;41.09;101107.41;5052268;28;45583;-65
2021/09/12 05:12:36;;;;;;;;;0.00;0.00;;;;;27.05;41.23;101113.84;5052235;28;45488;-66
2021/09/12 05:15:02;;;;;;;;;0.00;0.00;;;;;27.05;41.29;101120.19;5033726;28;47185;-66
2021/09/12 05:17:27;;;;;;;;;0.00;0.00;;;;;27.05;40.76;101113.84;5052106;28;45432;-66
2021/09/12 05:19:53;;;;;;;;;0.00;0.00;;;;;27.05;40.74;101111.13;5052120;28;45636;-66
2021/09/12 05:22:18;;;;;;;;;0.00;0.00;;;;;27.04;41.41;101101.13;5052104;28;45448;-66
2021/09/12 05:24:50;;;;;;;;;0.00;0.00;;;;;27.04;40.83;101102.00;5051702;28;45464;-66
2021/09/12 05:27:22;;;;;;;;;0.00;0.00;;;;;27.04;41.24;101106.59;5052331;28;45487;-66
2021/09/12 05:29:48;;;;;;;;;0.00;0.00;;;;;27.04;40.69;101106.59;5052119;28;45431;-66
2021/09/12 05:32:13;;;;;;;;;0.00;0.00;;;;;27.03;41.10;101111.19;5051708;28;45471;-66
2021/09/12 05:34:39;;;;;;;;;0.00;0.00;;;;;27.03;40.85;101113.03;5051727;28;46206;-66
2021/09/12 05:37:06;;;;;;;;;0.00;0.00;;;;;27.03;41.59;101113.03;5051663;28;45580;-66
2021/09/12 05:39:31;;;;;;;;;0.00;0.00;;;;;27.02;41.39;101116.72;5052020;28;45434;-66
2021/09/12 05:41:57;;;;;;;;;0.00;0.00;;;;;27.01;41.41;101117.69;5052098;28;45710;-66
2021/09/12 05:44:22;;;;;;;;;0.00;0.00;;;;;27.00;41.10;101119.50;5051410;28;46278;-66
2021/09/12 05:46:51;;;;;;;;;0.00;0.00;;;;;27.00;41.23;101114.03;5052239;28;45401;-66
2021/09/12 05:49:18;;;;;;;;;0.00;0.00;;;;;27.01;41.25;101123.16;5054284;28;45621;-66
2021/09/12 05:51:45;;;;;;;;;0.00;0.00;;;;;26.97;41.43;101116.94;5033344;28;45748;-66
2021/09/12 05:54:10;;;;;;;;;0.00;0.00;;;;;27.01;41.09;101123.16;5051407;28;46228;-66
2021/09/12 05:56:36;;;;;;;;;0.00;0.00;;;;;26.98;41.39;101123.28;5051710;28;45436;-66
2021/09/12 05:59:01;;;;;;;;;0.00;0.00;;;;;26.99;40.98;101125.94;5052211;28;45794;-66
2021/09/12 06:01:28;;;;;;;;;0.00;0.00;;;;;26.99;41.08;101131.41;5052132;28;45440;-66
2021/09/12 06:03:53;;;;;;;;;0.00;0.00;;;;;26.98;41.13;101135.06;5051534;28;46475;-66
2021/09/12 06:06:19;;;;;;;;;0.00;0.00;;;;;27.00;41.40;101135.88;5051813;28;45496;-65
2021/09/12 06:08:44;;;;;;;;;0.00;0.00;;;;;27.00;41.20;101132.28;5051424;28;45405;-65
2021/09/12 06:11:10;;;;;;;;;0.00;0.00;;;;;26.98;41.30;101135.06;5051175;28;45372;-65
2021/09/12 06:13:38;;;;;;;;;0.00;0.00;;;;;27.00;41.43;101135.00;5051084;28;47169;-66
2021/09/12 06:16:04;;;;;;;;;0.00;0.00;;;;;27.00;41.36;101143.19;5051332;28;45536;-66
2021/09/12 06:18:30;;;;;;;;;0.00;0.00;;;;;27.01;41.30;101139.53;5051053;28;45552;-67
2021/09/12 06:20:55;;;;;;;;;0.00;0.00;;;;;27.02;40.94;101138.53;5051225;28;45523;-67
2021/09/12 06:23:20;;;;;;;;;0.00;0.00;;;;;27.02;41.46;101139.44;5032652;28;47008;-67
2021/09/12 06:25:46;;;;;;;;;0.00;0.00;;;;;27.02;40.93;101141.28;5050990;28;45592;-67
2021/09/12 06:28:11;;;;;;;;;0.00;0.00;;;;;27.02;40.88;101133.09;5051683;28;45435;-67
2021/09/12 06:30:37;;;;;;;;;0.00;0.00;;;;;27.05;40.79;101141.16;5051711;28;45458;-67
2021/09/12 06:33:02;;;;;;;;;0.00;0.00;;;;;27.05;40.83;101146.59;5032775;28;45321;-67
2021/09/12 06:35:28;;;;;;;;;0.00;0.00;;;;;27.04;40.86;101142.97;5051201;28;45494;-66
2021/09/12 06:37:53;;;;;;;;;0.00;0.00;;;;;27.04;40.77;101139.34;5051269;28;45873;-66
2021/09/12 06:40:19;;;;;;;;;0.00;0.00;;;;;27.05;40.89;101143.88;5051046;28;45335;-67
2021/09/12 06:42:44;;;;;;;;;0.00;0.00;;;;;27.05;41.40;101141.16;5050817;28;45381;-67
2021/09/12 06:45:10;;;;;;;;;0.00;0.00;;;;;27.06;40.82;101142.91;5051030;28;45424;-67
2021/09/12 06:47:37;;;;;;;;;0.00;0.00;;;;;27.06;40.84;101131.97;5032834;28;45734;-67
2021/09/12 06:50:03;;;;;;;;;0.00;0.00;;;;;27.07;41.36;101144.69;5050709;28;45706;-67
2021/09/12 06:52:28;;;;;;;;;0.00;0.00;;;;;27.07;41.28;101139.22;5032444;28;47355;-65
2021/09/12 06:54:54;;;;;;;;;0.00;0.00;;;;;27.08;41.30;101127.31;5050662;28;45511;-66
2021/09/12 06:57:19;;;;;;;;;0.00;0.00;;;;;27.10;40.63;101133.59;5032497;28;45829;-66
2021/09/12 06:59:45;;;;;;;;;0.00;0.00;;;;;27.04;41.23;101121.13;5032560;28;45469;-66
2021/09/12 07:02:12;;;;;;;;;0.00;0.00;;;;;27.10;40.94;101125.41;5050725;28;45432;-66
2021/09/12 07:04:38;;;;;;;;;0.00;0.00;;;;;27.10;41.21;101123.56;5050489;28;45456;-66
2021/09/12 07:07:03;;;;;;;;;0.00;0.00;;;;;27.11;40.90;101124.47;5050814;28;45425;-66
2021/09/12 07:09:29;;;;;;;;;0.00;0.00;;;;;27.12;40.78;101121.63;5032773;28;45382;-66
2021/09/12 07:11:56;;;;;;;;;0.00;0.00;;;;;27.13;41.30;101131.59;5050317;28;45381;-65
2021/09/12 07:14:21;;;;;;;;;0.00;0.00;;;;;27.14;41.28;101129.75;5032556;28;46302;-66
2021/09/12 07:16:47;;;;;;;;;0.00;0.00;;;;;27.14;41.21;101130.63;5050652;28;45530;-65
2021/09/12 07:19:12;;;;;;;;;0.00;0.00;;;;;27.14;41.29;101138.81;5050368;28;45566;-66
2021/09/12 07:21:37;;;;;;;;;0.00;0.00;;;;;27.15;41.29;101142.47;5050483;28;45835;-66
2021/09/12 07:24:04;;;;;;;;;0.00;0.00;;;;;27.13;40.86;101134.34;5050724;28;45492;-66
2021/09/12 07:26:30;;;;;;;;;0.00;0.00;;;;;27.18;40.67;101146.88;5053374;28;45499;-66
2021/09/12 07:28:55;;;;;;;;;0.00;0.00;;;;;27.18;41.24;101139.56;5054549;28;45818;-66
2021/09/12 07:31:21;;;;;;;;;0.00;0.00;;;;;27.20;40.60;101144.97;5035728;28;47408;-66
2021/09/12 07:33:46;;;;;;;;;0.00;0.00;;;;;27.19;40.67;101135.88;5053893;28;45439;-65
2021/09/12 07:36:12;;;;;;;;;0.00;0.00;;;;;27.20;41.01;101132.19;5053691;28;45462;-66
2021/09/12 07:38:37;;;;;;;;;0.00;0.00;;;;;27.20;40.57;101136.75;5054200;28;45466;-66
2021/09/12 07:41:03;;;;;;;;;0.00;0.00;;;;;27.20;41.02;101137.66;5055821;28;46314;-66
2021/09/12 07:43:29;;;;;;;;;0.00;0.00;;;;;27.21;40.75;101133.06;5035421;28;45405;-66
2021/09/12 07:45:55;;;;;;;;;0.00;0.00;;;;;27.22;40.27;101143.91;5053813;28;45402;-66
2021/09/12 07:48:21;;;;;;;;;0.00;0.00;;;;;27.22;41.09;101138.44;5053549;28;45490;-66
2021/09/12 07:50:47;;;;;;;;;0.00;0.00;;;;;27.26;41.13;101140.09;5053591;28;45997;-66
2021/09/12 07:53:12;;;;;;;;;0.00;0.00;;;;;27.25;40.89;101141.09;5053561;28;45519;-66
2021/09/12 07:55:38;;;;;;;;;0.00;0.00;;;;;27.29;41.24;101136.34;5053556;28;45373;-66
2021/09/12 07:58:03;;;;;;;;;0.00;0.00;;;;;27.29;41.11;101139.97;5053518;28;45421;-66
2021/09/12 08:00:28;;;;;;;;;0.00;0.00;;;;;27.31;40.65;101148.97;5052945;28;45544;-66
2021/09/12 08:02:54;;;;;;;;;0.00;0.00;;;;;27.32;41.09;101142.53;5053505;28;45463;-66
2021/09/12 08:05:19;;;;;;;;;0.00;0.00;;;;;27.35;40.99;101136.06;5053395;28;45747;-65
2021/09/12 08:07:44;;;;;;;;;0.00;0.00;;;;;27.36;40.39;101143.28;5053402;28;45449;-66
2021/09/12 08:10:10;;;;;;;;;0.00;0.00;;;;;27.38;40.85;101145.94;5053157;28;45970;-66
2021/09/12 08:12:37;;;;;;;;;0.00;0.00;;;;;27.39;40.55;101142.22;5053435;28;45510;-66
2021/09/12 08:15:03;;;;;;;;;0.00;0.00;;;;;27.40;40.38;101144.00;5053624;28;45394;-65
2021/09/12 08:17:28;;;;;;;;;0.00;0.00;;;;;27.42;40.89;101142.09;5053442;28;45494;-65
2021/09/12 08:19:54;;;;;;;;;0.00;0.00;;;;;27.42;40.70;101145.69;5052763;28;45630;-65
2021/09/12 08:22:19;;;;;;;;;0.00;0.00;;;;;27.42;40.44;101145.69;5018027;28;45471;-65
2021/09/12 08:24:44;;;;;;;;;0.00;0.00;;;;;27.45;40.89;101144.66;5034668;28;45477;-66
2021/09/12 08:27:10;;;;;;;;;0.00;0.00;;;;;27.45;40.32;101147.38;5052322;28;45409;-66
2021/09/12 08:29:35;;;;;;;;;0.00;0.00;;;;;27.44;40.90;101145.63;5052761;28;45755;-66
2021/09/12 08:32:01;;;;;;;;;0.00;0.00;;;;;27.43;40.83;101136.56;5052901;28;45935;-66
2021/09/12 08:34:27;;;;;;;;;0.00;0.00;;;;;27.49;40.62;101152.63;5052590;28;45458;-65
2021/09/12 08:36:53;;;;;;;;;0.00;0.00;;;;;27.51;40.43;101155.25;5052802;28;45797;-65
2021/09/12 08:39:19;;;;;;;;;0.00;0.00;;;;;27.52;40.15;101144.25;5052703;28;45460;-67
2021/09/12 08:41:45;;;;;;;;;0.00;0.00;;;;;27.48;40.15;101134.47;5052085;28;45401;-67
2021/09/12 08:44:16;;;;;;;;;0.00;0.00;;;;;27.54;40.77;101141.47;5052698;28;45541;-67
2021/09/12 08:46:41;;;;;;;;;0.00;0.00;;;;;27.55;40.41;101151.41;5034790;28;45746;-67
2021/09/12 08:49:08;;;;;;;;;0.00;0.00;;;;;27.56;40.69;101155.06;5051966;28;45578;-67
2021/09/12 08:51:33;;;;;;;;;0.00;0.00;;;;;27.56;40.65;101150.47;5052291;28;45456;-67
2021/09/12 08:54:00;;;;;;;;;0.00;0.00;;;;;27.57;40.20;101148.63;5052709;28;45368;-67
2021/09/12 08:56:25;;;;;;;;;0.00;0.00;;;;;27.55;40.00;101145.94;5052714;28;45481;-67
2021/09/12 08:58:50;;;;;;;;;0.00;0.00;;;;;27.59;40.38;101147.59;5052239;28;46623;-66
2021/09/12 09:01:16;;;;;;;;;0.00;0.00;;;;;27.55;40.34;101137.75;5052468;28;45590;-66
2021/09/12 09:03:42;;;;;;;;;0.00;0.00;;;;;27.53;40.49;101136.94;5033994;28;45520;-66
2021/09/12 09:06:17;;;;;;;;;0.00;0.00;;;;;27.61;40.45;101142.03;5052346;28;45560;-66
2021/09/12 09:08:56;;;;;;;;;0.00;0.00;;;;;27.62;39.83;101139.22;5052099;28;46852;-66
2021/09/12 09:11:39;;;;;;;;;0.00;0.00;;;;;27.60;40.41;101130.22;5052229;28;45619;-66
2021/09/12 09:14:15;;;;;;;;;0.00;0.00;;;;;27.63;40.53;101132.81;5052418;28;45377;-66
2021/09/12 09:16:42;;;;;;;;;0.00;0.00;;;;;27.59;39.99;101124.81;5052652;28;45829;-66
2021/09/12 09:19:08;;;;;;;;;0.00;0.00;;;;;27.64;40.12;101134.56;5052196;28;45543;-66
2021/09/12 09:21:37;;;;;;;;;0.00;0.00;;;;;27.66;40.57;101149.03;5052528;28;45449;-66
2021/09/12 09:24:38;;;;;;;;;0.00;0.00;;;;;27.67;40.04;101147.19;5052486;28;45490;-66
2021/09/12 09:27:04;;;;;;;;;0.00;0.00;;;;;27.61;39.88;101134.75;4969737;28;45464;-66
2021/09/12 09:29:32;;;;;;;;;0.00;0.00;;;;;27.67;40.04;101145.34;4969317;28;45757;-67
2021/09/12 09:32:15;;;;;;;;;0.00;0.00;;;;;27.68;40.50;101141.66;4969704;28;45559;-66
2021/09/12 09:34:43;;;;;;;;;0.00;0.00;;;;;27.69;40.55;101148.91;4969650;28;45762;-66
2021/09/12 09:37:21;;;;;;;;;0.00;0.00;;;;;27.69;40.07;101143.44;4969931;28;45585;-66
2021/09/12 09:39:53;;;;;;;;;0.00;0.00;;;;;27.72;39.79;101143.25;4969748;28;46311;-66
2021/09/12 09:42:35;;;;;;;;;0.00;0.00;;;;;27.70;40.05;101134.25;4969056;28;45371;-66
2021/09/12 09:45:04;;;;;;;;;0.00;0.00;;;;;27.74;40.05;101140.44;4969524;28;45531;-66
2021/09/12 09:47:30;;;;;;;;;0.00;0.00;;;;;27.71;39.96;101146.06;4968500;28;45670;-66
2021/09/12 09:50:25;;;;;;;;;0.00;0.00;;;;;27.75;39.87;101136.75;4969023;28;45740;-65
2021/09/12 09:52:53;;;;;;;;;0.00;0.00;;;;;27.77;39.97;101134.81;4967498;28;45951;-66
2021/09/12 09:55:21;;;;;;;;;0.00;0.00;;;;;27.77;40.47;101134.81;4969156;28;45505;-66
2021/09/12 09:57:51;;;;;;;;;0.00;0.00;;;;;27.71;39.80;101125.09;4969329;28;45496;-66
2021/09/12 10:00:18;;;;;;;;;0.00;0.00;;;;;27.78;40.23;101131.13;4983655;28;45493;-65
2021/09/12 10:02:44;;;;;;;;;0.00;0.00;;;;;27.80;40.22;101131.06;5051170;28;45556;-65
2021/09/12 10:05:16;;;;;;;;;0.00;0.00;;;;;27.82;40.06;101129.13;5050953;28;45661;-66
2021/09/12 10:07:42;;;;;;;;;0.00;0.00;;;;;27.82;40.14;101130.00;5051507;28;45463;-67
2021/09/12 10:10:13;;;;;;;;;0.00;0.00;;;;;27.84;40.06;101124.47;5050785;28;46212;-66
2021/09/12 10:12:45;;;;;;;;;0.00;0.00;;;;;27.84;39.86;101124.47;5050977;28;45438;-66
2021/09/12 10:15:17;;;;;;;;;0.00;0.00;;;;;27.86;40.28;101119.81;5051238;28;45757;-66
2021/09/12 10:17:44;;;;;;;;;0.00;0.00;;;;;27.87;39.63;101119.72;5051482;28;45534;-66
2021/09/12 10:20:15;;;;;;;;;0.00;0.00;;;;;27.88;40.01;101120.63;5050715;28;45442;-66
2021/09/12 10:23:03;;;;;;;;;0.00;0.00;;;;;27.88;40.00;101129.72;5050913;28;45458;-66
2021/09/12 10:25:49;;;;;;;;;0.00;0.00;;;;;27.90;40.19;101121.44;5050991;28;45382;-66
2021/09/12 10:28:41;;;;;;;;;0.00;0.00;;;;;27.89;40.21;101117.81;5050830;28;45565;-66
2021/09/12 10:31:33;;;;;;;;;0.00;0.00;;;;;27.90;40.26;101114.13;5046836;28;45496;-66
2021/09/12 10:34:11;;;;;;;;;0.00;0.00;;;;;27.91;39.56;101109.53;5050678;28;45417;-66
2021/09/12 10:36:42;;;;;;;;;0.00;0.00;;;;;27.91;39.83;101109.53;5050905;28;45558;-66
2021/09/12 10:39:26;;;;;;;;;0.00;0.00;;;;;27.93;39.76;101113.06;5050800;28;45408;-66
2021/09/12 10:42:18;;;;;;;;;0.00;0.00;;;;;27.94;40.07;101106.66;5050596;28;45499;-66
2021/09/12 10:44:44;;;;;;;;;0.00;0.00;;;;;27.93;39.48;101110.34;5046917;28;45445;-66
2021/09/12 10:47:13;;;;;;;;;0.00;0.00;;;;;27.93;40.24;101108.50;5050989;28;45515;-67
2021/09/12 10:49:39;;;;;;;;;0.00;0.00;;;;;27.96;40.10;101103.84;5050833;28;45396;-67
2021/09/12 10:52:09;;;;;;;;;0.00;0.00;;;;;27.96;40.22;101107.44;5050514;28;45483;-67
2021/09/12 10:55:09;;;;;;;;;0.00;0.00;;;;;27.98;39.93;101119.19;5050746;28;45574;-67
2021/09/12 10:57:38;;;;;;;;;0.00;0.00;;;;;27.95;39.53;101105.66;5050670;28;45487;-67
2021/09/12 11:00:06;;;;;;;;;0.00;0.00;;;;;27.98;39.32;101111.00;5051987;28;45438;-67
2021/09/12 11:02:42;;;;;;;;;0.00;0.00;;;;;28.00;39.71;101103.59;5054408;28;45566;-67
2021/09/12 11:05:25;;;;;;;;;0.00;0.00;;;;;28.00;39.57;101106.31;5054009;28;45405;-66
2021/09/12 11:07:55;;;;;;;;;0.00;0.00;;;;;28.00;39.49;101103.59;5054398;28;45595;-66
2021/09/12 11:10:40;;;;;;;;;0.00;0.00;;;;;28.01;39.93;101101.72;5054267;28;45499;-67
2021/09/12 11:13:06;;;;;;;;;0.00;0.00;;;;;28.00;39.58;101092.66;5053612;28;46162;-66
2021/09/12 11:15:32;;;;;;;;;0.67;0.00;;;;;28.03;39.35;101097.06;5035343;28;45535;-66
2021/09/12 11:17:58;;;;;;;;;0.00;0.00;;;;;28.03;39.33;101097.94;5054067;28;45545;-67
2021/09/12 11:20:43;;;;;;;;;0.00;0.00;;;;;28.05;39.40;101090.53;5053888;28;45787;-66
2021/09/12 11:23:09;;;;;;;;;0.00;0.00;;;;;28.05;39.82;101090.53;5053648;28;46262;-66
2021/09/12 11:25:35;;;;;;;;;0.00;0.00;;;;;28.02;39.63;101085.25;5053080;28;45485;-66